Time;durP1;ratioP1;P1;durP2;ratioP2;P2;SDS_P1;SDS_P2;PMS_P1;PMS_P2;Temp;Humidity;BMP_temperature;BMP_pressure;BME280_temperature;BME280_humidity;BME280_pressure;Samples;Min_cycle;Max_cycle;Signal;HPM_P1;HPM_P2
2023/08/25 00:01:42;;;;;;;;;;;;;;;26.55;60.29;100712.38;7398688;19;1731;-48
2023/08/25 00:04:10;;;;;;;;;;;;;;;26.57;60.24;100716.56;7400971;19;1941;-49
2023/08/25 00:06:38;;;;;;;;;;;;;;;26.56;60.52;100722.16;7400936;19;1766;-48
2023/08/25 00:09:09;;;;;;;;;;;;;;;26.52;60.53;100710.88;7400175;19;1827;-48
2023/08/25 00:11:37;;;;;;;;;;;;;;;26.54;60.34;100711.53;7400180;19;1944;-48
2023/08/25 00:14:06;;;;;;;;;;;;;;;26.51;60.62;100720.03;7399478;19;1815;-48
2023/08/25 00:16:34;;;;;;;;;;;;;;;26.56;60.44;100701.34;7398743;19;1842;-48
2023/08/25 00:19:02;;;;;;;;;;;;;;;26.55;60.57;100710.50;7400598;19;1724;-48
2023/08/25 00:21:31;;;;;;;;;;;;;;;26.55;60.53;100715.06;7399910;19;1837;-48
2023/08/25 00:23:59;;;;;;;;;;;;;;;26.52;60.64;100702.75;7398882;19;1424;-48
2023/08/25 00:26:31;;;;;;;;;;;;;;;26.51;60.41;100706.47;7399433;19;1441;-48
2023/08/25 00:29:00;;;;;;;;;;;;;;;26.54;60.37;100705.25;7401022;19;1776;-49
2023/08/25 00:31:28;;;;;;;;;;;;;;;26.50;60.42;100696.66;7400581;19;1665;-48
2023/08/25 00:33:57;;;;;;;;;;;;;;;26.51;60.23;100695.63;7399980;19;1757;-48
2023/08/25 00:36:26;;;;;;;;;;;;;;;26.53;60.56;100692.72;7396191;19;1853;-48
2023/08/25 00:38:54;;;;;;;;;;;;;;;26.50;60.27;100690.38;7399897;19;1878;-48
2023/08/25 00:41:23;;;;;;;;;;;;;;;26.51;60.21;100692.91;7398650;19;1716;-48
2023/08/25 00:43:54;;;;;;;;;;;;;;;26.47;60.63;100688.91;7399451;19;1755;-48
2023/08/25 00:46:22;;;;;;;;;;;;;;;26.50;60.30;100699.38;7399351;19;1822;-48
2023/08/25 00:48:51;;;;;;;;;;;;;;;26.51;60.54;100695.63;7398070;19;1796;-48
2023/08/25 00:51:20;;;;;;;;;;;;;;;26.50;60.56;100688.53;7398619;19;1646;-48
2023/08/25 00:53:49;;;;;;;;;;;;;;;26.46;60.64;100689.94;7399590;19;1728;-49
2023/08/25 00:56:18;;;;;;;;;;;;;;;26.48;60.47;100696.00;7397164;19;1858;-48
2023/08/25 00:58:46;;;;;;;;;;;;;;;26.45;60.45;100692.81;7399113;19;1733;-49
2023/08/25 01:01:18;;;;;;;;;;;;;;;26.46;60.52;100686.34;7398029;19;1760;-49
2023/08/25 01:03:48;;;;;;;;;;;;;;;26.46;60.74;100687.22;7399354;19;1714;-48
2023/08/25 01:06:16;;;;;;;;;;;;;;;26.43;60.81;100682.16;7399044;19;1728;-48
2023/08/25 01:08:45;;;;;;;;;;;;;;;26.05;60.46;100625.31;7399122;19;1830;-48
2023/08/25 01:11:23;;;;;;;;;;;;;;;26.43;60.55;100676.75;7398226;19;1729;-48
2023/08/25 01:13:56;;;;;;;;;;;;;;;26.45;60.70;100671.97;7398708;19;1747;-49
2023/08/25 01:16:30;;;;;;;;;;;;;;;26.48;60.54;100674.31;7397163;19;1921;-48
2023/08/25 01:18:59;;;;;;;;;;;;;;;26.46;60.53;100679.09;7398243;19;1615;-48
2023/08/25 01:21:27;;;;;;;;;;;;;;;26.47;60.36;100675.34;7398183;19;1645;-48
2023/08/25 01:24:00;;;;;;;;;;;;;;;26.45;60.63;100687.41;7397918;19;1738;-48
2023/08/25 01:26:32;;;;;;;;;;;;;;;26.42;60.70;100675.03;7398525;19;1795;-48
2023/08/25 01:29:00;;;;;;;;;;;;;;;26.42;60.85;100663.38;7399243;19;1803;-48
2023/08/25 01:31:29;;;;;;;;;;;;;;;26.42;60.49;100675.03;7398997;19;1752;-48
2023/08/25 01:33:57;;;;;;;;;;;;;;;26.39;60.89;100676.25;7398804;19;1737;-48
2023/08/25 01:36:28;;;;;;;;;;;;;;;26.40;60.63;100668.97;7396649;19;1848;-48
2023/08/25 01:38:59;;;;;;;;;;;;;;;26.42;60.74;100661.47;7398253;19;1859;-48
2023/08/25 01:41:33;;;;;;;;;;;;;;;26.44;60.60;100666.72;7398187;19;1720;-48
2023/08/25 01:44:02;;;;;;;;;;;;;;;26.47;60.56;100667.19;7396260;19;1795;-48
2023/08/25 01:46:32;;;;;;;;;;;;;;;26.43;60.38;100668.59;7397657;19;1792;-48
2023/08/25 01:49:01;;;;;;;;;;;;;;;26.44;60.35;100667.59;7397497;19;1928;-48
2023/08/25 01:51:30;;;;;;;;;;;;;;;26.47;60.63;100661.78;7396791;19;1673;-48
2023/08/25 01:53:58;;;;;;;;;;;;;;;26.46;60.72;100670.97;7393632;19;1679;-48
2023/08/25 01:56:26;;;;;;;;;;;;;;;26.45;60.62;100665.72;7395953;19;1844;-48
2023/08/25 01:58:57;;;;;;;;;;;;;;;26.44;60.65;100662.16;7395295;19;1560;-48
2023/08/25 02:01:26;;;;;;;;;;;;;;;26.43;60.54;100665.91;7394510;19;1727;-48
2023/08/25 02:03:55;;;;;;;;;;;;;;;26.43;60.39;100657.75;7397620;19;1368;-48
2023/08/25 02:06:23;;;;;;;;;;;;;;;26.43;60.86;100663.19;7396857;19;1971;-48
2023/08/25 02:08:52;;;;;;;;;;;;;;;26.41;60.82;100650.84;7396365;19;1921;-48
2023/08/25 02:11:20;;;;;;;;;;;;;;;26.39;60.87;100656.44;7396119;19;1962;-48
2023/08/25 02:13:48;;;;;;;;;;;;;;;26.43;60.52;100671.31;7396033;19;1836;-49
2023/08/25 02:16:19;;;;;;;;;;;;;;;26.42;60.64;100647.94;7394932;19;1854;-50
2023/08/25 02:18:47;;;;;;;;;;;;;;;26.43;60.57;100657.75;7395897;19;1416;-48
2023/08/25 02:21:16;;;;;;;;;;;;;;;26.44;60.60;100662.16;7396809;19;1196;-49
2023/08/25 02:23:44;;;;;;;;;;;;;;;26.43;60.32;100651.50;7395340;19;1485;-48
2023/08/25 02:26:12;;;;;;;;;;;;;;;26.47;60.70;100664.50;7396044;19;1510;-49
2023/08/25 02:28:40;;;;;;;;;;;;;;;26.47;60.67;100659.06;7394346;19;1587;-48
2023/08/25 02:31:09;;;;;;;;;;;;;;;26.39;60.86;100659.16;7396650;19;1484;-48
2023/08/25 02:33:39;;;;;;;;;;;;;;;26.41;60.80;100638.13;7395784;19;1456;-48
2023/08/25 02:36:08;;;;;;;;;;;;;;;26.39;60.60;100641.03;7395240;19;1862;-49
2023/08/25 02:38:36;;;;;;;;;;;;;;;26.35;60.83;100644.31;7396028;19;1855;-49
2023/08/25 02:41:04;;;;;;;;;;;;;;;26.37;60.64;100653.09;7396172;19;1735;-49
2023/08/25 02:43:33;;;;;;;;;;;;;;;26.37;60.72;100650.38;7396554;19;1756;-49
2023/08/25 02:46:02;;;;;;;;;;;;;;;26.39;60.90;100664.59;7395342;19;1807;-49
2023/08/25 02:48:30;;;;;;;;;;;;;;;26.36;60.99;100654.97;7395282;19;1819;-48
2023/08/25 02:51:01;;;;;;;;;;;;;;;26.40;60.87;100660.81;7394698;19;1791;-49
2023/08/25 02:53:29;;;;;;;;;;;;;;;26.42;60.64;100669.63;7395929;19;1417;-49
2023/08/25 02:55:57;;;;;;;;;;;;;;;26.38;60.78;100652.91;7395436;19;1833;-49
2023/08/25 02:58:25;;;;;;;;;;;;;;;26.37;60.77;100643.06;7393756;19;1722;-49
2023/08/25 03:00:54;;;;;;;;;;;;;;;26.35;60.77;100644.31;7393557;19;1653;-48
2023/08/25 03:03:22;;;;;;;;;;;;;;;26.39;60.73;100651.03;7395878;19;1722;-49
2023/08/25 03:05:51;;;;;;;;;;;;;;;26.44;60.60;100648.59;7400632;19;1817;-48
2023/08/25 03:08:23;;;;;;;;;;;;;;;26.38;60.82;100663.75;7402740;19;2015;-48
2023/08/25 03:10:53;;;;;;;;;;;;;;;26.37;60.69;100675.59;7402049;19;1880;-49
2023/08/25 03:13:21;;;;;;;;;;;;;;;26.37;60.90;100663.94;7402652;19;1727;-48
2023/08/25 03:15:52;;;;;;;;;;;;;;;26.38;60.81;100673.72;7401472;19;1861;-48
2023/08/25 03:18:20;;;;;;;;;;;;;;;26.35;60.91;100658.69;7401283;19;1730;-48
2023/08/25 03:20:52;;;;;;;;;;;;;;;26.35;60.77;100663.28;7403432;19;1137;-48
2023/08/25 03:23:23;;;;;;;;;;;;;;;26.35;60.80;100653.25;7399255;19;1919;-48
2023/08/25 03:25:51;;;;;;;;;;;;;;;26.34;60.91;100650.72;7401900;19;1681;-48
2023/08/25 03:28:19;;;;;;;;;;;;;;;26.36;60.97;100649.53;7401853;19;1817;-48
2023/08/25 03:30:48;;;;;;;;;;;;;;;26.35;60.66;100655.16;7401361;19;1557;-47
2023/08/25 03:33:16;;;;;;;;;;;;;;;26.35;60.97;100663.28;7400474;19;1332;-47
2023/08/25 03:35:44;;;;;;;;;;;;;;;26.34;60.96;100667.00;7401159;19;1861;-49
2023/08/25 03:38:13;;;;;;;;;;;;;;;26.35;60.86;100668.69;7400340;19;1386;-47
2023/08/25 03:40:44;;;;;;;;;;;;;;;26.33;60.87;100665.34;7401453;19;1526;-48
2023/08/25 03:43:12;;;;;;;;;;;;;;;26.35;60.61;100679.53;7400429;19;1574;-48
2023/08/25 03:45:40;;;;;;;;;;;;;;;26.38;60.58;100684.56;7398588;19;1713;-47
2023/08/25 03:48:08;;;;;;;;;;;;;;;26.35;61.00;100684.97;7400525;19;1593;-48
2023/08/25 03:50:37;;;;;;;;;;;;;;;26.39;60.63;100707.97;7400714;19;1442;-48
2023/08/25 03:53:05;;;;;;;;;;;;;;;26.35;60.74;100685.81;7400600;19;1617;-48
2023/08/25 03:55:34;;;;;;;;;;;;;;;26.38;60.90;100690.00;7402362;19;1857;-48
2023/08/25 03:58:05;;;;;;;;;;;;;;;26.35;60.80;100691.22;7401120;19;1938;-47
2023/08/25 04:00:33;;;;;;;;;;;;;;;26.34;60.96;100683.28;7399263;19;1924;-48
2023/08/25 04:03:04;;;;;;;;;;;;;;;26.36;60.85;100700.19;7400836;19;1630;-48
2023/08/25 04:05:32;;;;;;;;;;;;;;;26.35;60.79;100704.78;7400288;19;1844;-48
2023/08/25 04:08:01;;;;;;;;;;;;;;;26.37;60.84;100701.88;7401006;19;1750;-48
2023/08/25 04:10:29;;;;;;;;;;;;;;;26.36;60.71;100708.31;7400192;19;1812;-48
2023/08/25 04:12:57;;;;;;;;;;;;;;;26.41;60.67;100719.47;7400368;19;1730;-48
2023/08/25 04:15:28;;;;;;;;;;;;;;;26.48;60.37;100708.72;7400661;19;1717;-48
2023/08/25 04:17:56;;;;;;;;;;;;;;;26.77;59.50;100713.31;7396525;19;1849;-48
2023/08/25 04:20:25;;;;;;;;;;;;;;;27.31;58.10;100707.53;7401563;19;952;-48
2023/08/25 04:22:53;;;;;;;;;;;;;;;27.75;57.13;100717.38;7399593;19;1807;-48
2023/08/25 04:25:21;;;;;;;;;;;;;;;28.16;55.78;100713.16;7400194;19;1807;-48
2023/08/25 04:27:50;;;;;;;;;;;;;;;28.43;55.25;100713.31;7399364;19;1821;-48
2023/08/25 04:30:22;;;;;;;;;;;;;;;28.33;55.19;100710.94;7399396;19;1634;-49
2023/08/25 04:32:53;;;;;;;;;;;;;;;27.56;57.02;100750.63;7398611;19;1402;-48
2023/08/25 04:35:22;;;;;;;;;;;;;;;26.92;58.82;100740.47;7398971;19;1431;-48
2023/08/25 04:37:50;;;;;;;;;;;;;;;26.59;59.81;100741.66;7397377;19;1853;-48
2023/08/25 04:40:19;;;;;;;;;;;;;;;26.70;59.77;100769.34;7399323;19;1613;-47
2023/08/25 04:42:47;;;;;;;;;;;;;;;27.08;58.57;100744.81;7398665;19;1522;-48
2023/08/25 04:45:16;;;;;;;;;;;;;;;27.19;58.32;100750.59;7399015;19;1554;-48
2023/08/25 04:47:44;;;;;;;;;;;;;;;27.07;58.79;100757.53;7398883;19;1528;-48
2023/08/25 04:50:15;;;;;;;;;;;;;;;26.90;59.20;100761.47;7400902;19;1151;-49
2023/08/25 04:52:43;;;;;;;;;;;;;;;26.73;59.72;100766.28;7398753;19;1991;-48
2023/08/25 04:55:13;;;;;;;;;;;;;;;26.64;59.88;100759.25;7398206;19;1506;-48
2023/08/25 04:57:41;;;;;;;;;;;;;;;26.59;60.07;100763.34;7396355;19;1862;-48
2023/08/25 05:00:10;;;;;;;;;;;;;;;26.59;60.07;100774.22;7398204;19;1769;-48
2023/08/25 05:02:38;;;;;;;;;;;;;;;26.63;59.80;100774.69;7397623;19;2158;-47
2023/08/25 05:05:09;;;;;;;;;;;;;;;26.62;59.98;100775.72;7398292;19;1808;-48
2023/08/25 05:07:40;;;;;;;;;;;;;;;26.56;59.98;100779.13;7396874;19;1749;-48
2023/08/25 05:10:09;;;;;;;;;;;;;;;26.74;59.66;100786.94;7398858;19;1796;-48
2023/08/25 05:12:37;;;;;;;;;;;;;;;26.65;60.05;100777.22;7398435;19;1725;-48
2023/08/25 05:15:05;;;;;;;;;;;;;;;26.63;60.13;100774.69;7399023;19;1829;-48
2023/08/25 05:17:34;;;;;;;;;;;;;;;26.71;59.91;100790.03;7396616;19;1831;-48
2023/08/25 05:20:02;;;;;;;;;;;;;;;26.76;59.77;100779.47;7399450;19;1527;-48
2023/08/25 05:22:31;;;;;;;;;;;;;;;26.75;59.56;100794.06;7397324;19;1963;-48
2023/08/25 05:25:02;;;;;;;;;;;;;;;26.76;59.76;100785.75;7398939;19;1452;-48
2023/08/25 05:27:30;;;;;;;;;;;;;;;26.74;59.75;100787.78;7399270;19;1797;-48
2023/08/25 05:29:58;;;;;;;;;;;;;;;26.76;59.75;100799.31;7397198;19;1444;-48
2023/08/25 05:32:27;;;;;;;;;;;;;;;26.82;59.57;100795.00;7396910;19;1373;-48
2023/08/25 05:34:55;;;;;;;;;;;;;;;26.78;59.67;100809.97;7397728;19;1467;-48
2023/08/25 05:37:23;;;;;;;;;;;;;;;26.74;59.66;100805.91;7396955;19;1838;-47
2023/08/25 05:39:52;;;;;;;;;;;;;;;26.84;59.48;100808.38;7398006;19;1422;-47
2023/08/25 05:42:23;;;;;;;;;;;;;;;26.87;59.22;100802.56;7398845;19;1428;-48
2023/08/25 05:44:52;;;;;;;;;;;;;;;26.87;59.56;100794.44;7398140;19;1457;-48
2023/08/25 05:47:20;;;;;;;;;;;;;;;26.89;59.36;100800.53;7398679;19;1841;-48
2023/08/25 05:49:48;;;;;;;;;;;;;;;26.88;59.35;100802.41;7397836;19;1488;-48
2023/08/25 05:52:17;;;;;;;;;;;;;;;26.90;59.39;100786.78;7396864;19;1538;-48
2023/08/25 05:54:45;;;;;;;;;;;;;;;26.93;59.40;100796.41;7394943;19;1810;-48
2023/08/25 05:57:13;;;;;;;;;;;;;;;26.92;59.29;100802.88;7396799;19;1839;-48
2023/08/25 05:59:44;;;;;;;;;;;;;;;26.89;59.41;100800.53;7396452;19;1763;-48
2023/08/25 06:02:13;;;;;;;;;;;;;;;26.95;59.06;100778.06;7396718;19;1733;-48
2023/08/25 06:04:41;;;;;;;;;;;;;;;26.96;59.13;100775.16;7397215;19;1910;-46
2023/08/25 06:07:09;;;;;;;;;;;;;;;26.94;59.19;100779.94;7395782;19;1899;-48
2023/08/25 06:09:41;;;;;;;;;;;;;;;26.93;59.40;100780.94;7394975;19;1517;-49
2023/08/25 06:12:11;;;;;;;;;;;;;;;26.99;59.01;100782.06;7396293;19;1733;-48
2023/08/25 06:14:39;;;;;;;;;;;;;;;26.95;59.19;100787.03;7395621;19;1816;-48
2023/08/25 06:17:10;;;;;;;;;;;;;;;27.02;59.02;100778.13;7396152;19;1841;-48
2023/08/25 06:19:38;;;;;;;;;;;;;;;27.03;59.11;100774.41;7398418;19;944;-49
2023/08/25 06:22:06;;;;;;;;;;;;;;;27.05;59.05;100777.78;7396954;19;1698;-49
2023/08/25 06:24:35;;;;;;;;;;;;;;;26.97;59.24;100776.81;7395226;19;1734;-49
2023/08/25 06:27:03;;;;;;;;;;;;;;;26.98;59.27;100783.97;7396306;19;1674;-49
2023/08/25 06:29:32;;;;;;;;;;;;;;;26.99;59.45;100788.34;7396673;19;1797;-49
2023/08/25 06:32:00;;;;;;;;;;;;;;;27.04;59.08;100781.50;7396512;19;1725;-49
2023/08/25 06:34:31;;;;;;;;;;;;;;;26.94;59.53;100788.06;7395881;19;1564;-48
2023/08/25 06:36:59;;;;;;;;;;;;;;;26.96;59.28;100799.59;7395860;19;1849;-48
2023/08/25 06:39:28;;;;;;;;;;;;;;;26.94;59.38;100782.66;7397917;19;1459;-49
2023/08/25 06:41:56;;;;;;;;;;;;;;;27.09;59.22;100773.66;7402873;19;1938;-48
2023/08/25 06:44:25;;;;;;;;;;;;;;;27.08;59.18;100793.66;7402220;19;1640;-49
2023/08/25 06:46:53;;;;;;;;;;;;;;;27.07;59.27;100792.81;7401835;19;1725;-48
2023/08/25 06:49:22;;;;;;;;;;;;;;;26.99;59.35;100790.22;7402713;19;1749;-49
2023/08/25 06:51:52;;;;;;;;;;;;;;;26.99;59.40;100787.50;7403491;19;1731;-49
2023/08/25 06:54:21;;;;;;;;;;;;;;;27.04;59.46;100781.50;7402359;19;1372;-48
2023/08/25 06:56:50;;;;;;;;;;;;;;;27.03;59.30;100802.38;7401137;19;1844;-49
2023/08/25 06:59:19;;;;;;;;;;;;;;;26.87;59.92;100789.00;7402335;19;1599;-48
2023/08/25 07:01:47;;;;;;;;;;;;;;;26.71;60.21;100800.88;7402705;19;1614;-49
2023/08/25 07:04:15;;;;;;;;;;;;;;;26.99;59.48;100801.91;7402758;19;1444;-48
2023/08/25 07:06:43;;;;;;;;;;;;;;;27.04;59.21;100776.94;7400395;19;1488;-49
2023/08/25 07:09:15;;;;;;;;;;;;;;;27.05;59.37;100799.47;7402719;19;1653;-49
2023/08/25 07:11:43;;;;;;;;;;;;;;;27.12;59.06;100795.81;7401673;19;1491;-48
2023/08/25 07:14:11;;;;;;;;;;;;;;;27.12;59.49;100795.00;7402137;19;1494;-48
2023/08/25 07:16:40;;;;;;;;;;;;;;;27.14;59.09;100798.38;7401600;19;1871;-49
2023/08/25 07:19:08;;;;;;;;;;;;;;;27.16;59.09;100797.13;7401891;19;1787;-48
2023/08/25 07:21:37;;;;;;;;;;;;;;;27.14;59.24;100799.19;7402786;19;1745;-49
2023/08/25 07:24:06;;;;;;;;;;;;;;;27.15;59.33;100791.88;7401485;19;1740;-48
2023/08/25 07:26:36;;;;;;;;;;;;;;;27.02;59.25;100783.56;7401317;19;1572;-49
2023/08/25 07:29:05;;;;;;;;;;;;;;;27.08;59.49;100791.81;7402650;19;1614;-49
2023/08/25 07:31:34;;;;;;;;;;;;;;;27.14;59.28;100787.50;7401848;19;1718;-49
2023/08/25 07:34:02;;;;;;;;;;;;;;;27.11;59.39;100788.69;7402161;19;1883;-49
2023/08/25 07:36:31;;;;;;;;;;;;;;;27.15;59.35;100795.44;7401264;19;1790;-48
2023/08/25 07:38:59;;;;;;;;;;;;;;;27.11;59.24;100796.00;7398892;19;1836;-48
2023/08/25 07:41:27;;;;;;;;;;;;;;;27.18;59.28;100786.09;7401873;19;1730;-48
2023/08/25 07:43:58;;;;;;;;;;;;;;;27.13;59.24;100793.94;7400164;19;1792;-48
2023/08/25 07:46:27;;;;;;;;;;;;;;;27.03;59.64;100780.66;7399636;19;1822;-49
2023/08/25 07:48:55;;;;;;;;;;;;;;;27.04;59.77;100792.34;7401138;19;1730;-49
2023/08/25 07:51:24;;;;;;;;;;;;;;;27.21;59.19;100793.84;7399126;19;1824;-49
2023/08/25 07:53:52;;;;;;;;;;;;;;;27.23;59.42;100786.34;7398939;19;1760;-48
2023/08/25 07:56:20;;;;;;;;;;;;;;;27.23;58.99;100780.91;7400763;19;1022;-49
2023/08/25 07:58:48;;;;;;;;;;;;;;;27.15;59.34;100786.47;7397089;19;1876;-48
2023/08/25 08:01:19;;;;;;;;;;;;;;;27.15;59.18;100773.72;7399100;19;1728;-48
2023/08/25 08:03:48;;;;;;;;;;;;;;;27.11;59.56;100779.72;7399868;19;1823;-49
2023/08/25 08:06:16;;;;;;;;;;;;;;;27.24;59.12;100796.22;7399037;19;1663;-49
2023/08/25 08:08:45;;;;;;;;;;;;;;;27.22;59.35;100772.97;7395554;19;1345;-49
2023/08/25 08:11:13;;;;;;;;;;;;;;;27.22;59.18;100778.38;7397522;19;1657;-49
2023/08/25 08:13:41;;;;;;;;;;;;;;;27.22;59.18;100779.25;7398816;19;1421;-49
2023/08/25 08:16:09;;;;;;;;;;;;;;;27.24;59.21;100781.78;7396698;19;1703;-48
2023/08/25 08:18:40;;;;;;;;;;;;;;;27.21;59.23;100768.56;7399500;19;1861;-48
2023/08/25 08:21:09;;;;;;;;;;;;;;;27.17;59.38;100770.81;7399247;19;1944;-49
2023/08/25 08:23:37;;;;;;;;;;;;;;;27.08;59.43;100771.94;7399052;19;1946;-48
2023/08/25 08:26:06;;;;;;;;;;;;;;;27.07;59.78;100770.28;7401734;19;1735;-49
2023/08/25 08:28:34;;;;;;;;;;;;;;;27.22;59.45;100773.81;7402409;19;1062;-48
2023/08/25 08:31:05;;;;;;;;;;;;;;;27.16;59.42;100766.44;7399747;19;1494;-48
2023/08/25 08:33:33;;;;;;;;;;;;;;;27.21;59.07;100763.16;7400281;19;1871;-47
2023/08/25 08:36:04;;;;;;;;;;;;;;;27.19;59.31;100757.91;7400316;19;1741;-48
2023/08/25 08:38:33;;;;;;;;;;;;;;;27.22;59.20;100762.97;7400562;19;1854;-48
2023/08/25 08:41:04;;;;;;;;;;;;;;;27.24;59.17;100758.22;7401570;19;1571;-47
2023/08/25 08:43:38;;;;;;;;;;;;;;;27.12;59.58;100751.56;7400772;19;1858;-47
2023/08/25 08:46:07;;;;;;;;;;;;;;;27.21;59.40;100752.28;7396275;19;1957;-47
2023/08/25 08:48:36;;;;;;;;;;;;;;;27.15;59.54;100753.88;7401258;19;1003;-48
2023/08/25 08:51:09;;;;;;;;;;;;;;;27.11;59.65;100744.44;7400995;19;1034;-47
2023/08/25 08:53:38;;;;;;;;;;;;;;;27.10;59.45;100753.63;7397803;19;1863;-48
2023/08/25 08:56:07;;;;;;;;;;;;;;;27.06;59.81;100747.72;7400606;19;1090;-48
2023/08/25 08:58:36;;;;;;;;;;;;;;;27.17;59.58;100740.97;7396806;19;1846;-48
2023/08/25 09:01:05;;;;;;;;;;;;;;;27.24;59.35;100733.78;7398314;19;1833;-47
2023/08/25 09:03:36;;;;;;;;;;;;;;;27.25;59.25;100735.44;7398800;19;1619;-48
2023/08/25 09:06:07;;;;;;;;;;;;;;;27.27;59.23;100741.53;7398673;19;1661;-48
2023/08/25 09:08:35;;;;;;;;;;;;;;;27.19;59.51;100747.03;7398748;19;1691;-48
2023/08/25 09:11:05;;;;;;;;;;;;;;;27.17;59.62;100738.25;7397675;19;1281;-48
2023/08/25 09:13:36;;;;;;;;;;;;;;;27.17;59.40;100746.38;7399702;19;1725;-47
2023/08/25 09:16:12;;;;;;;;;;;;;;;27.18;59.57;100734.50;7399240;19;1834;-48
2023/08/25 09:18:41;;;;;;;;;;;;;;;27.21;59.21;100734.13;7397431;19;1834;-47
2023/08/25 09:21:22;;;;;;;;;;;;;;;27.20;59.60;100737.88;7399214;19;1442;-47
2023/08/25 09:23:54;;;;;;;;;;;;;;;27.29;59.33;100731.31;7397237;19;1847;-48
2023/08/25 09:26:22;;;;;;;;;;;;;;;27.17;59.55;100717.34;7397208;19;1847;-48
2023/08/25 09:28:50;;;;;;;;;;;;;;;27.22;59.58;100724.97;7397336;19;1700;-48
2023/08/25 09:31:22;;;;;;;;;;;;;;;27.24;59.50;100720.22;7399152;19;1780;-48
2023/08/25 09:33:52;;;;;;;;;;;;;;;27.34;59.29;100718.00;7398863;19;1700;-47
2023/08/25 09:36:22;;;;;;;;;;;;;;;27.35;59.14;100718.84;7398566;19;1820;-47
2023/08/25 09:38:51;;;;;;;;;;;;;;;27.29;59.28;100731.31;7397939;19;1865;-47
2023/08/25 09:41:25;;;;;;;;;;;;;;;27.13;59.58;100710.63;7399057;19;1720;-47
2023/08/25 09:43:53;;;;;;;;;;;;;;;27.10;59.85;100700.19;7399815;19;949;-48
2023/08/25 09:46:28;;;;;;;;;;;;;;;27.29;59.43;100708.75;7398506;19;1618;-48
2023/08/25 09:49:01;;;;;;;;;;;;;;;27.23;59.45;100694.03;7398641;19;1850;-48
2023/08/25 09:51:37;;;;;;;;;;;;;;;27.29;59.46;100697.91;7398700;19;1870;-48
2023/08/25 09:54:08;;;;;;;;;;;;;;;27.31;59.35;100696.66;7394931;19;1472;-54
2023/08/25 09:56:37;;;;;;;;;;;;;;;27.37;59.33;100698.59;7398153;19;999;-49
2023/08/25 09:59:06;;;;;;;;;;;;;;;27.32;59.25;100687.50;7395330;19;1832;-49
2023/08/25 10:01:36;;;;;;;;;;;;;;;27.35;59.10;100683.53;7396720;19;1535;-49
2023/08/25 10:04:04;;;;;;;;;;;;;;;27.25;59.50;100686.56;7397776;19;1535;-49
2023/08/25 10:06:36;;;;;;;;;;;;;;;27.26;59.35;100665.72;7398582;19;1496;-49
2023/08/25 10:09:05;;;;;;;;;;;;;;;27.25;59.52;100675.72;7397886;19;1399;-48
2023/08/25 10:11:37;;;;;;;;;;;;;;;27.26;59.65;100680.13;7398269;19;1669;-48
2023/08/25 10:14:08;;;;;;;;;;;;;;;27.24;59.48;100674.06;7396018;19;1787;-48
2023/08/25 10:16:40;;;;;;;;;;;;;;;27.36;59.21;100668.94;7397464;19;1657;-48
2023/08/25 10:19:11;;;;;;;;;;;;;;;27.33;59.44;100682.91;7395655;19;1861;-49
2023/08/25 10:21:44;;;;;;;;;;;;;;;27.34;59.25;100680.00;7397221;19;1117;-48
2023/08/25 10:24:14;;;;;;;;;;;;;;;27.37;59.52;100684.19;7396589;19;1941;-48
2023/08/25 10:26:43;;;;;;;;;;;;;;;27.37;59.34;100689.63;7397437;19;1732;-48
2023/08/25 10:29:12;;;;;;;;;;;;;;;27.32;59.24;100686.66;7397446;19;1046;-49
2023/08/25 10:31:47;;;;;;;;;;;;;;;27.35;59.41;100681.66;7398106;19;1885;-49
2023/08/25 10:34:30;;;;;;;;;;;;;;;27.31;59.51;100677.66;7397667;19;1602;-48
2023/08/25 10:37:07;;;;;;;;;;;;;;;27.32;59.41;100687.50;7397232;19;1519;-49
2023/08/25 10:39:50;;;;;;;;;;;;;;;27.15;60.06;100676.00;7395804;19;1960;-49
2023/08/25 10:42:22;;;;;;;;;;;;;;;27.05;60.35;100680.91;7397563;19;2340;-48
2023/08/25 10:44:54;;;;;;;;;;;;;;;27.17;59.86;100660.34;7397429;19;1677;-47
2023/08/25 10:47:23;;;;;;;;;;;;;;;27.24;59.72;100674.06;7397131;19;1855;-49
2023/08/25 10:49:55;;;;;;;;;;;;;;;27.30;59.40;100657.00;7397107;19;1732;-49
2023/08/25 10:52:26;;;;;;;;;;;;;;;27.34;59.59;100652.84;7398793;19;944;-48
2023/08/25 10:54:55;;;;;;;;;;;;;;;27.34;59.54;100660.16;7397506;19;1934;-49
2023/08/25 10:57:41;;;;;;;;;;;;;;;27.32;59.43;100649.47;7393469;19;1630;-49
2023/08/25 11:00:24;;;;;;;;;;;;;;;27.35;59.55;100657.22;7392975;19;1845;-47
2023/08/25 11:02:52;;;;;;;;;;;;;;;27.29;59.58;100640.88;7397395;19;1506;-49
2023/08/25 11:05:36;;;;;;;;;;;;;;;27.33;59.44;100639.47;7397059;19;1708;-48
2023/08/25 11:08:07;;;;;;;;;;;;;;;27.27;59.67;100643.78;7397487;19;1740;-48
2023/08/25 11:10:37;;;;;;;;;;;;;;;27.29;59.60;100655.28;7396794;19;1650;-49
2023/08/25 11:13:08;;;;;;;;;;;;;;;27.15;60.08;100637.16;7396032;19;1507;-49
2023/08/25 11:15:38;;;;;;;;;;;;;;;27.32;59.78;100637.78;7396745;19;1685;-49
2023/08/25 11:18:07;;;;;;;;;;;;;;;27.33;59.74;100624.00;7396876;19;1967;-47
2023/08/25 11:20:35;;;;;;;;;;;;;;;27.34;59.78;100631.13;7397221;19;1000;-49
2023/08/25 11:23:03;;;;;;;;;;;;;;;27.25;59.60;100621.41;7393283;19;1456;-49
2023/08/25 11:25:35;;;;;;;;;;;;;;;27.37;59.53;100625.28;7398049;19;1959;-48
2023/08/25 11:28:05;;;;;;;;;;;;;;;27.40;59.72;100620.50;7404612;19;1036;-49
2023/08/25 11:30:36;;;;;;;;;;;;;;;27.34;59.56;100628.41;7401698;19;1569;-48
2023/08/25 11:33:05;;;;;;;;;;;;;;;27.36;59.64;100623.63;7402480;19;1727;-48
2023/08/25 11:35:33;;;;;;;;;;;;;;;27.37;59.69;100625.28;7401719;19;1356;-48
2023/08/25 11:38:04;;;;;;;;;;;;;;;27.30;59.68;100620.84;7403273;19;1297;-49
2023/08/25 11:40:35;;;;;;;;;;;;;;;27.22;59.99;100610.94;7402760;19;1392;-48
2023/08/25 11:43:03;;;;;;;;;;;;;;;27.16;60.06;100619.84;7402837;19;1661;-49
2023/08/25 11:45:32;;;;;;;;;;;;;;;27.13;60.41;100614.78;7403715;19;1811;-48
2023/08/25 11:48:00;;;;;;;;;;;;;;;27.09;60.24;100611.63;7404107;19;968;-49
2023/08/25 11:50:29;;;;;;;;;;;;;;;27.25;59.80;100604.28;7404265;19;1732;-49
2023/08/25 11:53:00;;;;;;;;;;;;;;;27.14;60.02;100602.91;7399574;19;1851;-48
2023/08/25 11:55:35;;;;;;;;;;;;;;;27.22;59.90;100600.06;7403822;19;940;-48
2023/08/25 11:58:08;;;;;;;;;;;;;;;27.23;60.07;100599.03;7401178;19;1804;-48
2023/08/25 12:00:39;;;;;;;;;;;;;;;27.23;59.86;100601.72;7398621;19;1847;-48
2023/08/25 12:03:08;;;;;;;;;;;;;;;27.24;60.07;100608.03;7401579;19;1739;-48
2023/08/25 12:05:37;;;;;;;;;;;;;;;27.19;60.42;100605.88;7400303;19;1361;-48
2023/08/25 12:08:06;;;;;;;;;;;;;;;27.21;60.03;100605.69;7402228;19;1814;-49
2023/08/25 12:10:39;;;;;;;;;;;;;;;27.12;60.29;100596.84;7402383;19;1811;-48
2023/08/25 12:13:07;;;;;;;;;;;;;;;27.18;60.26;100596.91;7401413;19;1712;-49
2023/08/25 12:15:44;;;;;;;;;;;;;;;27.15;60.12;100604.59;7402563;19;1439;-48
2023/08/25 12:18:14;;;;;;;;;;;;;;;27.11;60.46;100603.28;7402505;19;1824;-48
2023/08/25 12:20:45;;;;;;;;;;;;;;;27.26;60.03;100598.69;7400452;19;1847;-47
2023/08/25 12:23:13;;;;;;;;;;;;;;;27.30;60.11;100602.69;7399093;19;1892;-48
2023/08/25 12:25:44;;;;;;;;;;;;;;;27.27;59.94;100596.78;7400960;19;1783;-47
2023/08/25 12:28:13;;;;;;;;;;;;;;;27.37;59.85;100590.00;7403166;19;1050;-48
2023/08/25 12:30:41;;;;;;;;;;;;;;;27.39;59.92;100595.22;7400044;19;1934;-49
2023/08/25 12:33:10;;;;;;;;;;;;;;;27.41;59.68;100592.31;7400072;19;1377;-48
2023/08/25 12:35:38;;;;;;;;;;;;;;;27.42;59.62;100581.28;7400023;19;1673;-49
2023/08/25 12:38:06;;;;;;;;;;;;;;;27.39;59.49;100578.94;7399681;19;1759;-48
2023/08/25 12:40:36;;;;;;;;;;;;;;;27.39;59.71;100603.38;7398998;19;1858;-48
2023/08/25 12:43:07;;;;;;;;;;;;;;;27.26;60.05;100587.81;7401137;19;1836;-49
2023/08/25 12:45:36;;;;;;;;;;;;;;;27.40;59.76;100568.91;7401032;19;1383;-48
2023/08/25 12:48:05;;;;;;;;;;;;;;;27.39;59.64;100587.09;7402258;19;1395;-48
2023/08/25 12:50:33;;;;;;;;;;;;;;;27.39;59.94;100587.09;7402064;19;1038;-49
2023/08/25 12:53:01;;;;;;;;;;;;;;;27.40;59.77;100580.63;7397559;19;1858;-48
2023/08/25 12:55:30;;;;;;;;;;;;;;;27.45;59.54;100571.88;7401445;19;968;-49
2023/08/25 12:57:58;;;;;;;;;;;;;;;27.41;59.74;100570.59;7398714;19;1883;-48
2023/08/25 13:00:29;;;;;;;;;;;;;;;27.37;59.56;100560.13;7396943;19;1844;-48